Time;durP1;ratioP1;P1;durP2;ratioP2;P2;SDS_P1;SDS_P2;PMS_P1;PMS_P2;Temp;Humidity;BMP_temperature;BMP_pressure;BME280_temperature;BME280_humidity;BME280_pressure;Samples;Min_cycle;Max_cycle;Signal;HPM_P1;HPM_P2
2023/04/18 00:00:04;;;;;;;10.93;8.05;;;7.50;99.90;;;;;;5090211;28;20736;-69
2023/04/18 00:02:32;;;;;;;10.60;8.32;;;7.50;99.90;;;;;;5090221;28;20204;-69
2023/04/18 00:04:58;;;;;;;10.00;8.15;;;7.50;99.90;;;;;;5090368;28;20226;-68
2023/04/18 00:07:25;;;;;;;10.13;7.18;;;7.60;99.90;;;;;;5090181;28;20298;-69
2023/04/18 00:09:53;;;;;;;10.07;6.97;;;7.60;99.90;;;;;;5090356;28;20208;-68
2023/04/18 00:12:20;;;;;;;9.15;7.25;;;7.60;99.90;;;;;;5090206;28;20195;-68
2023/04/18 00:14:49;;;;;;;9.70;7.13;;;7.60;99.90;;;;;;5090050;28;20208;-68
2023/04/18 00:17:15;;;;;;;10.38;7.90;;;7.60;99.90;;;;;;5090202;28;20220;-68
2023/04/18 00:19:42;;;;;;;9.93;7.60;;;7.60;99.90;;;;;;5089808;28;20196;-67
2023/04/18 00:22:09;;;;;;;12.05;8.00;;;7.60;99.90;;;;;;5090107;28;20196;-68
2023/04/18 00:24:36;;;;;;;9.52;7.38;;;7.60;99.90;;;;;;5079802;28;20200;-68
2023/04/18 00:27:04;;;;;;;11.80;7.53;;;7.60;99.90;;;;;;5069890;28;20283;-68
2023/04/18 00:29:31;;;;;;;10.30;6.80;;;7.60;99.90;;;;;;5069825;28;20590;-68
2023/04/18 00:31:58;;;;;;;12.60;8.00;;;7.60;99.90;;;;;;5069305;28;20205;-68
2023/04/18 00:34:25;;;;;;;10.73;8.40;;;7.60;99.90;;;;;;5069739;28;20668;-68
2023/04/18 00:36:51;;;;;;;8.75;7.00;;;7.60;99.90;;;;;;5069221;28;20224;-69
2023/04/18 00:39:18;;;;;;;11.45;8.43;;;7.60;99.90;;;;;;5069743;28;20200;-68
2023/04/18 00:41:45;;;;;;;9.20;7.15;;;7.60;99.90;;;;;;5069020;28;20253;-68
2023/04/18 00:44:13;;;;;;;9.88;7.65;;;7.50;99.90;;;;;;5069833;28;20562;-68
2023/04/18 00:46:39;;;;;;;10.98;7.57;;;7.50;99.90;;;;;;5069395;28;20223;-68
2023/04/18 00:49:06;;;;;;;9.00;7.40;;;7.50;99.90;;;;;;5069773;28;20231;-68
2023/04/18 00:51:34;;;;;;;9.50;6.45;;;7.50;99.90;;;;;;5069091;28;20208;-69
2023/04/18 00:54:01;;;;;;;11.35;8.20;;;7.50;99.90;;;;;;5069363;28;20602;-68
2023/04/18 00:56:29;;;;;;;9.55;6.90;;;7.50;99.90;;;;;;5069336;28;20235;-68
2023/04/18 00:58:57;;;;;;;10.63;6.20;;;7.50;99.90;;;;;;5069154;28;20676;-68
2023/04/18 01:01:25;;;;;;;11.73;6.93;;;7.50;99.90;;;;;;5069002;28;20197;-68
2023/04/18 01:03:51;;;;;;;9.13;6.72;;;7.50;99.90;;;;;;5069373;28;20228;-68
2023/04/18 01:06:18;;;;;;;10.95;7.35;;;7.60;99.90;;;;;;5069483;28;20597;-68
2023/04/18 01:08:45;;;;;;;11.30;7.18;;;7.60;99.90;;;;;;5088697;28;20196;-69
2023/04/18 01:11:12;;;;;;;9.35;7.00;;;7.50;99.90;;;;;;5089260;28;20202;-68
2023/04/18 01:13:39;;;;;;;8.98;5.90;;;7.50;99.90;;;;;;5089388;28;20200;-68
2023/04/18 01:16:06;;;;;;;9.40;7.32;;;7.50;99.90;;;;;;5089289;28;20202;-68
2023/04/18 01:18:34;;;;;;;7.55;6.20;;;7.50;99.90;;;;;;5089138;28;20265;-69
2023/04/18 01:21:01;;;;;;;8.75;7.15;;;7.50;99.90;;;;;;5088963;28;20199;-68
2023/04/18 01:23:29;;;;;;;8.45;6.20;;;7.50;99.90;;;;;;5089130;28;20215;-68
2023/04/18 01:25:57;;;;;;;10.60;7.03;;;7.50;99.90;;;;;;5092560;28;20199;-68
2023/04/18 01:28:26;;;;;;;9.93;6.85;;;7.50;99.90;;;;;;5093127;28;20192;-68
2023/04/18 01:30:53;;;;;;;9.65;7.20;;;7.50;99.90;;;;;;5092934;28;20195;-69
2023/04/18 01:33:20;;;;;;;8.65;6.40;;;7.50;99.90;;;;;;5093304;28;20636;-68
2023/04/18 01:35:46;;;;;;;9.82;6.72;;;7.50;99.90;;;;;;5092912;28;20211;-68
2023/04/18 01:38:13;;;;;;;8.80;6.53;;;7.50;99.90;;;;;;5092936;28;20226;-69
2023/04/18 01:40:40;;;;;;;11.38;6.80;;;7.50;99.90;;;;;;5092509;28;20204;-68
2023/04/18 01:43:08;;;;;;;10.20;7.43;;;7.50;99.90;;;;;;5092913;28;20667;-68
2023/04/18 01:45:34;;;;;;;9.77;6.53;;;7.50;99.90;;;;;;5093117;28;20584;-68
2023/04/18 01:48:01;;;;;;;14.18;8.07;;;7.50;99.90;;;;;;5092783;28;20207;-68
2023/04/18 01:50:28;;;;;;;8.60;6.47;;;7.50;99.90;;;;;;5092847;28;20204;-68
2023/04/18 01:52:54;;;;;;;9.52;7.50;;;7.40;99.90;;;;;;5092793;28;20200;-68
2023/04/18 01:55:21;;;;;;;8.50;6.20;;;7.40;99.90;;;;;;5093096;28;20202;-68
2023/04/18 01:57:49;;;;;;;9.10;5.78;;;7.50;99.90;;;;;;5092200;28;20264;-68
2023/04/18 02:00:18;;;;;;;10.30;7.22;;;7.50;99.90;;;;;;5092763;28;20200;-68
2023/04/18 02:02:45;;;;;;;8.73;7.20;;;7.50;99.90;;;;;;5092306;28;20192;-68
2023/04/18 02:05:12;;;;;;;10.52;6.78;;;7.50;99.90;;;;;;5092871;28;20196;-68
2023/04/18 02:07:39;;;;;;;8.90;6.20;;;7.40;99.90;;;;;;5092089;28;20219;-68
2023/04/18 02:10:07;;;;;;;8.13;6.50;;;7.40;99.90;;;;;;5092615;28;20493;-69
2023/04/18 02:12:34;;;;;;;8.35;6.40;;;7.40;99.90;;;;;;5092491;28;20658;-68
2023/04/18 02:15:00;;;;;;;9.80;7.25;;;7.40;99.90;;;;;;5092525;28;20212;-68
2023/04/18 02:17:29;;;;;;;10.27;7.63;;;7.40;99.90;;;;;;5092154;28;20698;-68
2023/04/18 02:19:56;;;;;;;11.18;7.25;;;7.40;99.90;;;;;;5092125;28;20195;-68
2023/04/18 02:22:22;;;;;;;7.95;6.80;;;7.40;99.90;;;;;;5092350;28;20204;-68
2023/04/18 02:24:49;;;;;;;9.45;6.90;;;7.40;99.90;;;;;;5072162;28;20197;-68
2023/04/18 02:27:17;;;;;;;9.55;7.22;;;7.40;99.90;;;;;;5072433;28;20590;-68
2023/04/18 02:29:44;;;;;;;10.15;7.50;;;7.40;99.90;;;;;;5072236;28;20220;-68
2023/04/18 02:32:11;;;;;;;15.43;6.93;;;7.30;99.90;;;;;;5072226;28;20192;-68
2023/04/18 02:34:39;;;;;;;7.57;6.63;;;7.30;99.90;;;;;;5072241;28;20203;-67
2023/04/18 02:37:06;;;;;;;11.57;7.18;;;7.30;99.90;;;;;;5071631;28;20231;-68
2023/04/18 02:39:32;;;;;;;9.23;6.28;;;7.30;99.90;;;;;;5072133;28;20577;-68
2023/04/18 02:42:00;;;;;;;11.07;7.03;;;7.30;99.90;;;;;;5071862;28;20220;-69
2023/04/18 02:44:26;;;;;;;10.93;6.53;;;7.30;99.90;;;;;;5071826;28;20208;-68
2023/04/18 02:46:53;;;;;;;10.63;7.13;;;7.30;99.90;;;;;;5071737;28;20220;-69
2023/04/18 02:49:20;;;;;;;8.98;6.28;;;7.30;99.90;;;;;;5072040;28;20211;-68
2023/04/18 02:51:48;;;;;;;11.57;6.20;;;7.30;99.90;;;;;;5071208;28;20668;-68
2023/04/18 02:54:15;;;;;;;12.48;6.47;;;7.30;99.90;;;;;;5072039;28;20196;-68
2023/04/18 02:56:41;;;;;;;10.20;6.85;;;7.30;99.90;;;;;;5079832;28;20231;-68
2023/04/18 02:59:08;;;;;;;8.95;6.40;;;7.20;99.90;;;;;;5071768;28;20220;-68
2023/04/18 03:01:35;;;;;;;9.05;6.55;;;7.20;99.90;;;;;;5071388;28;20645;-69
2023/04/18 03:04:02;;;;;;;10.77;6.53;;;7.20;99.90;;;;;;5071550;28;20206;-69
2023/04/18 03:06:28;;;;;;;11.05;7.40;;;7.20;99.90;;;;;;5071357;28;20223;-68
2023/04/18 03:08:56;;;;;;;12.50;7.70;;;7.20;99.90;;;;;;5071388;28;20189;-69
2023/04/18 03:11:23;;;;;;;7.95;7.13;;;7.20;99.90;;;;;;5071329;28;20204;-68
2023/04/18 03:13:50;;;;;;;9.07;6.93;;;7.20;99.90;;;;;;5071402;28;20201;-68
2023/04/18 03:16:17;;;;;;;10.73;6.90;;;7.20;99.90;;;;;;5071548;28;20200;-68
2023/04/18 03:18:44;;;;;;;9.98;7.00;;;7.20;99.90;;;;;;5071114;28;20231;-68
2023/04/18 03:21:11;;;;;;;9.93;7.72;;;7.20;99.90;;;;;;5139959;22;20314;-67
2023/04/18 03:23:38;;;;;;;13.13;7.30;;;7.10;99.90;;;;;;5071132;28;20632;-68
2023/04/18 03:26:07;;;;;;;9.70;6.85;;;7.10;99.90;;;;;;5071363;28;20775;-67
2023/04/18 03:28:34;;;;;;;11.40;7.25;;;7.10;99.90;;;;;;5070548;28;20204;-67
2023/04/18 03:31:01;;;;;;;8.38;6.40;;;7.00;99.90;;;;;;5070767;28;20200;-68
2023/04/18 03:33:28;;;;;;;9.98;7.50;;;7.00;99.90;;;;;;5071038;28;20200;-66
2023/04/18 03:35:54;;;;;;;8.60;7.57;;;6.90;99.90;;;;;;5071092;28;20208;-67
2023/04/18 03:38:21;;;;;;;8.98;7.35;;;6.90;99.90;;;;;;5070960;28;20764;-66
2023/04/18 03:40:48;;;;;;;10.10;7.60;;;6.90;99.90;;;;;;5070922;28;20200;-67
2023/04/18 03:43:16;;;;;;;9.68;7.82;;;6.90;99.90;;;;;;5070950;28;20214;-67
2023/04/18 03:45:45;;;;;;;10.18;7.10;;;6.90;99.90;;;;;;5071062;28;20200;-68
2023/04/18 03:48:12;;;;;;;14.13;6.93;;;6.90;99.90;;;;;;5069938;28;20220;-67
2023/04/18 03:50:39;;;;;;;8.85;7.10;;;6.90;99.90;;;;;;5069851;28;20200;-67
2023/04/18 03:53:06;;;;;;;8.00;6.18;;;6.90;99.90;;;;;;5070827;28;20196;-68
2023/04/18 03:55:33;;;;;;;8.65;6.43;;;6.90;99.90;;;;;;5070322;28;20200;-68
2023/04/18 03:57:59;;;;;;;12.40;7.68;;;6.90;99.90;;;;;;5070773;28;20216;-67
2023/04/18 04:00:27;;;;;;;10.80;7.60;;;6.90;99.90;;;;;;5070155;28;20327;-67
2023/04/18 04:02:54;;;;;;;8.02;6.45;;;6.90;99.90;;;;;;5070839;28;20219;-68
2023/04/18 04:05:21;;;;;;;8.50;6.78;;;6.90;99.90;;;;;;5070326;28;20204;-66
2023/04/18 04:07:48;;;;;;;12.27;7.85;;;6.80;99.90;;;;;;5070604;28;20240;-68
2023/04/18 04:10:14;;;;;;;12.00;7.25;;;6.80;99.90;;;;;;5070519;28;20561;-67
2023/04/18 04:12:41;;;;;;;12.68;7.10;;;6.80;99.90;;;;;;5071725;28;20207;-67
2023/04/18 04:15:09;;;;;;;10.98;6.30;;;6.80;99.90;;;;;;5071282;28;20664;-68
2023/04/18 04:17:37;;;;;;;10.60;7.00;;;6.80;99.90;;;;;;5069890;28;20224;-66
2023/04/18 04:20:04;;;;;;;12.35;6.90;;;6.80;99.90;;;;;;5069895;28;20200;-67
2023/04/18 04:22:31;;;;;;;9.50;6.53;;;6.80;99.90;;;;;;5070138;28;20220;-67
2023/04/18 04:24:59;;;;;;;8.77;7.35;;;6.80;99.90;;;;;;5070498;28;20235;-67
2023/04/18 04:27:26;;;;;;;10.50;7.15;;;6.80;99.90;;;;;;5069787;28;20231;-68
2023/04/18 04:29:55;;;;;;;9.75;6.63;;;6.80;99.90;;;;;;5069840;28;20200;-69
2023/04/18 04:32:22;;;;;;;9.07;6.88;;;6.80;99.90;;;;;;5069779;28;20208;-69
2023/04/18 04:34:51;;;;;;;9.70;7.20;;;6.80;99.90;;;;;;5070140;28;20201;-70
2023/04/18 04:37:17;;;;;;;10.90;6.95;;;6.80;99.90;;;;;;5069698;28;20216;-70
2023/04/18 04:39:44;;;;;;;10.80;7.00;;;6.80;99.90;;;;;;5069896;28;20231;-70
2023/04/18 04:42:12;;;;;;;10.55;7.50;;;6.90;99.90;;;;;;5069168;28;20207;-69
2023/04/18 04:44:40;;;;;;;12.40;6.93;;;6.90;99.90;;;;;;5069069;28;20197;-69
2023/04/18 04:47:07;;;;;;;11.38;8.23;;;6.80;99.90;;;;;;5069214;28;20389;-69
2023/04/18 04:49:33;;;;;;;9.85;7.40;;;6.80;99.90;;;;;;5068242;28;20206;-68
2023/04/18 04:52:02;;;;;;;7.80;7.00;;;6.80;99.90;;;;;;5068957;28;20205;-70
2023/04/18 04:54:29;;;;;;;9.65;7.35;;;6.80;99.90;;;;;;5069047;28;20645;-70
2023/04/18 04:56:56;;;;;;;11.07;8.00;;;6.80;99.90;;;;;;5069447;28;20438;-68
2023/04/18 04:59:23;;;;;;;9.32;7.60;;;6.70;99.90;;;;;;5073685;28;20224;-70
2023/04/18 05:01:50;;;;;;;8.43;6.32;;;6.80;99.90;;;;;;5068421;28;20279;-69
2023/04/18 05:04:17;;;;;;;13.75;7.95;;;6.80;99.90;;;;;;5076543;28;20197;-67
2023/04/18 05:06:43;;;;;;;10.13;6.88;;;6.80;99.90;;;;;;5076441;28;20247;-68
2023/04/18 05:09:12;;;;;;;10.50;7.25;;;6.80;99.90;;;;;;5076718;28;20196;-68
2023/04/18 05:11:39;;;;;;;10.50;7.30;;;6.70;99.90;;;;;;5076447;28;20257;-70
2023/04/18 05:14:06;;;;;;;9.95;6.60;;;6.80;99.90;;;;;;5076706;28;20201;-70
2023/04/18 05:16:32;;;;;;;13.75;7.10;;;6.80;99.90;;;;;;5076284;28;20235;-68
2023/04/18 05:18:59;;;;;;;8.70;6.35;;;6.80;99.90;;;;;;5076464;28;20244;-69
2023/04/18 05:21:27;;;;;;;9.73;8.10;;;6.80;99.90;;;;;;5075901;28;20686;-70
2023/04/18 05:23:54;;;;;;;8.98;5.93;;;6.80;99.90;;;;;;5076647;28;20204;-69
2023/04/18 05:26:23;;;;;;;10.75;7.68;;;6.80;99.90;;;;;;5076182;28;20289;-68
2023/04/18 05:28:50;;;;;;;10.73;6.22;;;6.90;99.90;;;;;;5076554;28;20619;-69
2023/04/18 05:31:16;;;;;;;8.77;6.90;;;6.90;99.90;;;;;;5075948;28;20232;-68
2023/04/18 05:33:43;;;;;;;9.88;6.20;;;6.90;99.90;;;;;;5076253;28;20200;-68
2023/04/18 05:36:10;;;;;;;11.00;6.15;;;7.00;99.90;;;;;;5076238;28;20231;-67
2023/04/18 05:38:36;;;;;;;10.00;6.88;;;6.90;99.90;;;;;;5076071;28;20220;-67
2023/04/18 05:43:32;;;;;;;10.40;7.53;;;6.90;99.90;;;;;;5044623;28;20210;-70
2023/04/18 05:45:59;;;;;;;9.07;6.55;;;6.90;99.90;;;;;;5036133;28;20550;-71
2023/04/18 05:48:26;;;;;;;9.93;6.80;;;6.90;99.90;;;;;;5035814;28;20275;-70
2023/04/18 05:50:52;;;;;;;12.45;7.55;;;7.00;99.90;;;;;;5035909;28;20213;-68
2023/04/18 05:53:19;;;;;;;10.32;7.10;;;7.00;99.90;;;;;;5036172;28;20251;-69
2023/04/18 05:55:47;;;;;;;9.88;7.28;;;7.00;99.90;;;;;;5039293;28;20208;-69
2023/04/18 05:58:14;;;;;;;12.00;7.43;;;7.00;99.90;;;;;;5055561;28;20221;-69
2023/04/18 06:00:43;;;;;;;7.78;6.65;;;7.00;99.90;;;;;;5055241;28;20210;-67
2023/04/18 06:03:09;;;;;;;10.48;6.93;;;7.10;99.90;;;;;;5055757;28;20201;-69
2023/04/18 06:05:36;;;;;;;14.23;6.97;;;7.10;99.90;;;;;;5055596;28;20208;-68
2023/04/18 06:08:03;;;;;;;9.20;7.07;;;7.20;99.90;;;;;;5055743;28;20197;-68
2023/04/18 06:10:30;;;;;;;12.02;8.80;;;7.20;99.90;;;;;;5053575;28;20236;-67
2023/04/18 06:12:56;;;;;;;9.20;7.05;;;7.20;99.90;;;;;;5052912;28;20205;-68
2023/04/18 06:15:23;;;;;;;11.00;6.93;;;7.30;99.90;;;;;;5052591;28;20209;-69
2023/04/18 06:17:51;;;;;;;12.93;7.80;;;7.30;99.90;;;;;;5044394;28;20208;-68
2023/04/18 06:20:18;;;;;;;11.68;7.63;;;7.30;99.90;;;;;;5052338;28;20204;-69
2023/04/18 06:22:44;;;;;;;12.10;8.20;;;7.30;99.90;;;;;;5052435;28;20225;-69
2023/04/18 06:25:11;;;;;;;12.18;7.97;;;7.30;99.90;;;;;;5046500;28;20202;-69
2023/04/18 06:27:38;;;;;;;10.85;7.25;;;7.30;99.90;;;;;;5050684;28;20208;-70
2023/04/18 06:30:06;;;;;;;11.32;8.50;;;7.40;99.90;;;;;;5052065;28;20216;-69
2023/04/18 06:32:33;;;;;;;10.95;7.63;;;7.40;99.90;;;;;;5043040;28;20731;-69
2023/04/18 06:35:01;;;;;;;9.75;6.20;;;7.40;99.90;;;;;;5033065;28;20216;-69
2023/04/18 06:37:28;;;;;;;11.70;7.45;;;7.40;99.90;;;;;;5032344;28;20205;-69
2023/04/18 06:39:55;;;;;;;11.90;7.57;;;7.40;99.90;;;;;;5044935;28;20209;-69
2023/04/18 06:42:21;;;;;;;9.55;7.30;;;7.30;99.90;;;;;;5036479;28;20261;-70
2023/04/18 06:44:48;;;;;;;10.70;7.38;;;7.40;99.90;;;;;;5032427;28;20213;-71
2023/04/18 06:47:15;;;;;;;9.85;7.38;;;7.40;99.90;;;;;;5032431;28;20205;-71
2023/04/18 06:49:42;;;;;;;10.38;6.80;;;7.40;99.90;;;;;;5050822;28;20204;-70
2023/04/18 06:52:10;;;;;;;12.50;8.80;;;7.50;99.90;;;;;;5051843;28;20228;-70
2023/04/18 06:54:36;;;;;;;9.40;6.57;;;7.50;99.90;;;;;;5052395;28;20671;-68
2023/04/18 06:57:03;;;;;;;9.65;6.82;;;7.50;99.90;;;;;;5044039;28;20204;-68
2023/04/18 06:59:30;;;;;;;10.10;7.63;;;7.60;99.90;;;;;;5052019;28;20243;-68
2023/04/18 07:01:57;;;;;;;11.18;8.07;;;7.70;99.90;;;;;;5039417;28;20237;-69
2023/04/18 07:04:23;;;;;;;8.95;6.82;;;7.80;99.90;;;;;;5031992;28;20204;-70
2023/04/18 07:06:51;;;;;;;11.13;8.15;;;7.90;99.90;;;;;;5031797;28;20672;-70
2023/04/18 07:09:19;;;;;;;11.15;8.27;;;8.00;99.90;;;;;;5031985;28;20201;-70
2023/04/18 07:11:46;;;;;;;10.40;7.60;;;8.00;99.90;;;;;;5039897;28;20260;-69
2023/04/18 07:14:13;;;;;;;13.00;7.45;;;8.00;99.90;;;;;;5031463;28;20201;-67
2023/04/18 07:16:39;;;;;;;8.38;6.80;;;8.00;99.90;;;;;;5049816;28;20208;-69
2023/04/18 07:19:06;;;;;;;8.60;7.32;;;8.00;99.90;;;;;;5051655;28;20217;-68
2023/04/18 07:21:33;;;;;;;11.88;7.40;;;8.10;99.90;;;;;;5042029;28;20229;-70
2023/04/18 07:23:59;;;;;;;9.70;7.63;;;8.00;99.90;;;;;;5031620;28;20201;-68
2023/04/18 07:26:28;;;;;;;12.57;7.45;;;8.00;99.90;;;;;;5031879;28;20244;-70
2023/04/18 07:28:54;;;;;;;10.98;7.40;;;8.10;99.90;;;;;;5043180;28;20197;-69
2023/04/18 07:31:21;;;;;;;10.20;7.30;;;8.10;99.90;;;;;;5043395;28;20770;-69
2023/04/18 07:33:48;;;;;;;10.80;7.68;;;8.20;99.90;;;;;;5032622;28;20202;-69
2023/04/18 07:36:15;;;;;;;8.52;7.45;;;8.20;99.90;;;;;;5031569;28;20664;-71
2023/04/18 07:38:43;;;;;;;8.30;7.35;;;8.30;99.90;;;;;;5031141;28;20217;-71
2023/04/18 07:41:09;;;;;;;11.20;8.52;;;8.20;99.90;;;;;;5044625;28;20640;-70
2023/04/18 07:43:39;;;;;;;10.50;7.88;;;8.30;99.90;;;;;;5043159;28;20212;-71
2023/04/18 07:46:06;;;;;;;13.50;8.18;;;8.50;99.90;;;;;;5038275;28;20198;-70
2023/04/18 07:48:33;;;;;;;11.77;7.53;;;8.50;99.90;;;;;;5031075;28;20425;-69
2023/04/18 07:50:59;;;;;;;9.30;6.78;;;8.60;99.90;;;;;;5035073;28;20213;-71
2023/04/18 07:53:26;;;;;;;8.77;6.63;;;8.70;99.90;;;;;;5037312;28;20217;-71
2023/04/18 07:55:54;;;;;;;12.82;8.93;;;8.70;99.90;;;;;;5033601;28;20201;-71
2023/04/18 07:58:21;;;;;;;10.93;7.00;;;8.70;99.90;;;;;;5044802;28;20299;-69
2023/04/18 08:00:50;;;;;;;14.15;7.93;;;8.70;99.90;;;;;;5038677;28;20240;-69
2023/04/18 08:03:17;;;;;;;10.07;7.45;;;8.80;99.90;;;;;;5038357;28;20206;-69
2023/04/18 08:05:43;;;;;;;9.68;6.43;;;8.90;99.90;;;;;;5046769;28;20220;-68
2023/04/18 08:08:12;;;;;;;10.65;7.05;;;9.00;99.90;;;;;;5035005;28;20229;-68
2023/04/18 08:10:39;;;;;;;11.95;7.45;;;9.10;99.90;;;;;;5040379;28;20206;-68
2023/04/18 08:13:07;;;;;;;9.18;6.85;;;9.10;99.90;;;;;;5038301;28;20698;-67
2023/04/18 08:15:33;;;;;;;10.27;7.15;;;9.20;99.90;;;;;;5050413;28;20212;-68
2023/04/18 08:18:01;;;;;;;10.43;7.10;;;9.20;99.90;;;;;;5042576;28;20197;-68
2023/04/18 08:20:28;;;;;;;7.80;6.40;;;9.10;99.90;;;;;;5043061;28;20218;-68
2023/04/18 08:22:55;;;;;;;11.10;7.18;;;9.10;99.90;;;;;;5038657;28;20213;-69
2023/04/18 08:25:22;;;;;;;10.52;7.82;;;9.20;99.90;;;;;;5039110;28;20268;-70
2023/04/18 08:27:48;;;;;;;9.00;7.30;;;9.20;99.90;;;;;;5045351;28;20201;-70
2023/04/18 08:30:15;;;;;;;10.55;8.32;;;9.30;99.90;;;;;;5044072;28;20194;-69
2023/04/18 08:32:42;;;;;;;13.65;7.93;;;9.30;99.90;;;;;;5038095;28;20241;-68
2023/04/18 08:35:10;;;;;;;11.85;8.30;;;9.50;99.90;;;;;;5030336;28;20205;-68
2023/04/18 08:37:37;;;;;;;9.55;7.35;;;9.80;99.90;;;;;;5038241;28;20197;-68
2023/04/18 08:40:06;;;;;;;7.43;6.47;;;10.20;99.90;;;;;;5045532;28;20758;-67
2023/04/18 08:42:33;;;;;;;10.70;7.68;;;10.40;99.90;;;;;;5029758;28;20224;-68
2023/04/18 08:45:00;;;;;;;10.18;7.40;;;10.50;99.90;;;;;;5041816;28;20198;-68
2023/04/18 08:47:28;;;;;;;8.80;7.45;;;10.40;99.90;;;;;;5047765;28;20315;-68
2023/04/18 08:49:56;;;;;;;12.15;7.57;;;10.30;99.90;;;;;;5032965;28;20199;-68
2023/04/18 08:52:25;;;;;;;12.07;7.25;;;10.10;99.90;;;;;;5035583;28;20308;-70
2023/04/18 08:54:52;;;;;;;9.35;6.95;;;10.20;99.90;;;;;;5039382;28;20702;-68
2023/04/18 08:57:25;;;;;;;10.27;7.07;;;10.20;99.90;;;;;;5031568;28;20466;-69
2023/04/18 08:59:54;;;;;;;9.43;7.15;;;10.20;99.90;;;;;;5048936;28;20722;-69
2023/04/18 09:02:22;;;;;;;9.40;7.22;;;10.20;99.90;;;;;;5042297;28;20252;-68
2023/04/18 09:04:52;;;;;;;8.20;6.10;;;10.40;99.90;;;;;;5040321;28;20555;-69
2023/04/18 09:07:20;;;;;;;9.98;7.00;;;10.70;99.90;;;;;;5048635;28;20581;-67
2023/04/18 09:09:51;;;;;;;9.55;7.80;;;10.70;99.90;;;;;;5031700;28;20227;-66
2023/04/18 09:12:21;;;;;;;9.77;7.32;;;10.70;99.90;;;;;;5037429;28;20232;-67
2023/04/18 09:14:50;;;;;;;9.65;7.68;;;10.70;99.90;;;;;;5039012;28;20252;-69
2023/04/18 09:17:34;;;;;;;10.25;7.60;;;10.70;99.90;;;;;;5035708;28;20283;-67
2023/04/18 09:20:03;;;;;;;9.65;7.53;;;10.60;99.90;;;;;;5108261;22;20358;-69
2023/04/18 09:22:46;;;;;;;9.88;7.68;;;10.40;99.90;;;;;;5089865;28;20230;-68
2023/04/18 09:25:27;;;;;;;9.27;6.68;;;10.40;99.90;;;;;;5091936;28;20199;-69
2023/04/18 09:27:56;;;;;;;10.98;7.43;;;10.50;99.90;;;;;;5089564;28;20199;-68
2023/04/18 09:30:31;;;;;;;6.75;5.82;;;10.30;99.90;;;;;;5089895;28;20192;-68
2023/04/18 09:33:00;;;;;;;12.43;8.02;;;10.20;99.90;;;;;;5089441;28;20210;-68
2023/04/18 09:35:28;;;;;;;7.65;6.07;;;10.10;99.90;;;;;;5089679;28;20210;-68
2023/04/18 09:37:55;;;;;;;8.63;6.60;;;10.10;99.90;;;;;;5089176;28;20200;-68
2023/04/18 09:40:22;;;;;;;11.75;8.07;;;10.00;99.90;;;;;;5081171;28;20595;-68
2023/04/18 09:42:53;;;;;;;10.13;7.78;;;10.00;99.90;;;;;;5089480;28;20283;-69
2023/04/18 09:45:20;;;;;;;10.07;6.88;;;9.90;99.90;;;;;;5090624;28;20666;-70
2023/04/18 09:47:47;;;;;;;10.43;6.95;;;9.90;99.90;;;;;;5093106;28;20214;-69
2023/04/18 09:50:15;;;;;;;10.45;7.20;;;9.90;99.90;;;;;;5093383;28;20196;-69
2023/04/18 09:52:44;;;;;;;9.93;7.60;;;9.90;99.90;;;;;;5093553;28;20245;-69
2023/04/18 09:55:13;;;;;;;13.10;8.60;;;10.00;99.90;;;;;;5093720;28;20195;-70
2023/04/18 09:57:42;;;;;;;11.15;8.07;;;10.20;99.90;;;;;;5093284;28;20289;-69
2023/04/18 10:00:16;;;;;;;11.63;8.20;;;10.40;99.90;;;;;;5093312;28;20235;-70
2023/04/18 10:02:48;;;;;;;10.93;7.35;;;10.50;99.90;;;;;;5092639;28;20250;-69
2023/04/18 10:05:16;;;;;;;9.93;7.45;;;10.90;99.90;;;;;;5093361;28;20681;-69
2023/04/18 10:07:46;;;;;;;7.80;6.65;;;11.20;99.90;;;;;;5093067;28;20269;-68
2023/04/18 10:10:13;;;;;;;10.95;7.80;;;11.40;99.90;;;;;;5093206;28;20253;-68
2023/04/18 10:12:41;;;;;;;13.90;8.32;;;11.60;99.90;;;;;;5092163;28;20224;-68
2023/04/18 10:15:11;;;;;;;9.70;7.00;;;11.70;99.90;;;;;;5092983;28;20556;-68
2023/04/18 10:17:43;;;;;;;8.40;7.15;;;11.50;99.90;;;;;;5092843;28;20551;-68
2023/04/18 10:20:16;;;;;;;12.23;7.47;;;11.40;99.90;;;;;;5092156;28;20623;-68
2023/04/18 10:22:43;;;;;;;11.05;7.18;;;11.40;99.90;;;;;;5092507;28;20242;-68
2023/04/18 10:25:10;;;;;;;9.82;7.28;;;11.50;99.90;;;;;;5092607;28;20314;-68
2023/04/18 10:27:57;;;;;;;9.63;7.85;;;11.50;99.90;;;;;;5091606;28;20230;-67
2023/04/18 10:30:56;;;;;;;6.80;6.07;;;11.70;99.90;;;;;;5092504;28;20192;-68
2023/04/18 10:33:26;;;;;;;10.95;7.53;;;11.80;99.90;;;;;;5092682;28;20200;-67
2023/04/18 10:36:14;;;;;;;8.00;6.78;;;11.90;99.90;;;;;;5092182;28;20616;-68
2023/04/18 10:38:45;;;;;;;9.40;6.60;;;12.00;99.90;;;;;;5092214;28;20210;-67
2023/04/18 10:41:23;;;;;;;8.98;6.28;;;12.10;99.90;;;;;;5091776;28;20573;-68
2023/04/18 10:44:26;;;;;;;9.25;7.55;;;12.10;99.90;;;;;;5091623;28;20212;-68
2023/04/18 10:47:29;;;;;;;9.18;7.40;;;12.20;99.90;;;;;;5091759;28;20710;-69
2023/04/18 10:49:59;;;;;;;10.80;6.68;;;12.10;99.90;;;;;;5091101;28;20207;-68
2023/04/18 10:52:27;;;;;;;9.05;7.10;;;12.10;99.90;;;;;;5091549;28;20289;-67
2023/04/18 10:55:01;;;;;;;12.35;6.35;;;12.00;99.90;;;;;;5091521;28;20203;-68
2023/04/18 10:57:38;;;;;;;8.32;6.68;;;12.10;99.90;;;;;;5091480;28;20673;-66
2023/04/18 11:00:10;;;;;;;7.45;6.30;;;12.10;99.90;;;;;;5091104;28;20655;-68
2023/04/18 11:02:37;;;;;;;8.00;5.97;;;12.10;99.90;;;;;;5091853;28;20231;-66
2023/04/18 11:05:07;;;;;;;8.18;5.82;;;12.10;99.90;;;;;;5091159;28;20196;-67
2023/04/18 11:07:35;;;;;;;8.15;6.03;;;12.20;99.90;;;;;;5091848;28;20199;-68
2023/04/18 11:10:02;;;;;;;6.85;5.70;;;12.10;99.90;;;;;;5091032;28;20282;-66
2023/04/18 11:12:31;;;;;;;7.85;6.47;;;12.00;99.90;;;;;;5091467;28;20231;-67
2023/04/18 11:15:00;;;;;;;7.75;6.10;;;11.90;99.90;;;;;;5091256;28;20272;-68
2023/04/18 11:17:28;;;;;;;6.72;6.03;;;11.90;99.90;;;;;;5091427;28;20277;-67
2023/04/18 11:20:07;;;;;;;8.30;5.80;;;11.90;99.90;;;;;;5090823;28;20249;-70
2023/04/18 11:22:44;;;;;;;7.95;5.78;;;11.90;99.90;;;;;;5091433;28;20230;-70
2023/04/18 11:25:11;;;;;;;5.72;5.13;;;12.00;99.90;;;;;;5091144;28;20200;-70
2023/04/18 11:27:40;;;;;;;8.32;5.80;;;12.00;99.90;;;;;;5090282;28;20199;-68
2023/04/18 11:30:08;;;;;;;6.22;4.80;;;11.90;99.90;;;;;;5090009;28;20196;-70
2023/04/18 11:32:35;;;;;;;5.60;4.72;;;12.00;99.90;;;;;;5091173;28;20220;-71
2023/04/18 11:35:03;;;;;;;6.32;5.43;;;11.90;99.90;;;;;;5091032;28;20196;-68
2023/04/18 11:37:31;;;;;;;6.70;5.35;;;11.90;99.90;;;;;;5091496;28;20228;-70
2023/04/18 11:39:59;;;;;;;7.10;5.28;;;12.00;99.90;;;;;;5090520;28;20224;-70
2023/04/18 11:42:27;;;;;;;7.70;5.22;;;12.00;99.90;;;;;;5090694;28;20219;-70
2023/04/18 11:44:54;;;;;;;5.65;4.45;;;11.90;99.90;;;;;;5090751;28;20237;-70
2023/04/18 11:47:25;;;;;;;6.13;4.82;;;12.00;99.90;;;;;;5091082;28;20201;-70
2023/04/18 11:49:59;;;;;;;6.00;4.85;;;12.00;99.90;;;;;;5090384;28;20265;-71
2023/04/18 11:52:27;;;;;;;6.68;4.65;;;12.00;99.90;;;;;;5090543;28;20637;-69
2023/04/18 11:54:54;;;;;;;6.15;5.15;;;12.00;99.90;;;;;;5089743;28;20200;-68
2023/04/18 11:57:24;;;;;;;5.38;4.38;;;12.10;99.90;;;;;;5090689;28;20203;-69
2023/04/18 11:59:52;;;;;;;5.82;5.18;;;12.10;99.90;;;;;;5090117;28;20686;-69
2023/04/18 12:02:20;;;;;;;5.90;4.20;;;12.10;99.90;;;;;;5090161;28;20226;-69
2023/04/18 12:04:55;;;;;;;5.35;4.85;;;12.10;99.90;;;;;;5090017;28;20210;-69
2023/04/18 12:07:37;;;;;;;5.40;4.10;;;12.10;99.90;;;;;;5090332;28;20195;-68
2023/04/18 12:10:05;;;;;;;5.30;3.75;;;12.00;99.90;;;;;;5089478;28;20230;-69
2023/04/18 12:12:34;;;;;;;5.00;3.40;;;12.10;99.90;;;;;;5090175;28;20243;-70
2023/04/18 12:15:03;;;;;;;6.95;4.22;;;12.00;99.90;;;;;;5090296;28;20645;-69
2023/04/18 12:17:32;;;;;;;7.03;4.70;;;12.00;99.90;;;;;;5090065;28;20199;-70
2023/04/18 12:20:03;;;;;;;4.55;3.70;;;11.90;99.90;;;;;;5088821;28;20243;-68
2023/04/18 12:22:42;;;;;;;5.65;4.15;;;11.90;99.90;;;;;;5090056;28;20248;-69
2023/04/18 12:25:22;;;;;;;5.78;4.75;;;12.00;99.90;;;;;;5089658;28;20198;-68
2023/04/18 12:27:56;;;;;;;4.75;4.10;;;12.00;99.90;;;;;;5089838;28;20199;-69
2023/04/18 12:30:25;;;;;;;6.13;4.00;;;12.00;99.90;;;;;;5090350;28;20203;-69
2023/04/18 12:32:53;;;;;;;5.85;5.00;;;11.90;99.90;;;;;;5089130;28;20196;-68
2023/04/18 12:35:21;;;;;;;4.90;4.15;;;11.90;99.90;;;;;;5089780;28;20665;-68
2023/04/18 12:37:49;;;;;;;6.57;4.47;;;11.90;99.90;;;;;;5089297;28;20195;-67
2023/04/18 12:40:17;;;;;;;4.45;3.95;;;11.90;99.90;;;;;;5089556;28;20215;-66
2023/04/18 12:42:45;;;;;;;4.45;3.70;;;11.90;99.90;;;;;;5089299;28;20220;-68
2023/04/18 12:45:14;;;;;;;6.68;4.90;;;12.00;99.90;;;;;;5089221;28;20573;-67
2023/04/18 12:47:42;;;;;;;7.13;4.43;;;12.30;99.90;;;;;;5089546;28;20227;-69
2023/04/18 12:50:10;;;;;;;6.70;4.43;;;12.70;99.90;;;;;;5089099;28;20196;-68
2023/04/18 12:52:39;;;;;;;5.00;4.00;;;12.90;99.90;;;;;;5089427;28;20226;-67
2023/04/18 12:55:07;;;;;;;5.93;4.45;;;13.00;99.90;;;;;;5089516;28;20586;-70
2023/04/18 12:57:34;;;;;;;6.13;4.40;;;12.90;99.90;;;;;;5089053;28;20200;-68